sensor_id;sensor_type;location;lat;lon;timestamp;temperature;humidity
45807;DHT22;31507;51.494;7.518;2022-10-15T00:01:42;13.10;99.90
45807;DHT22;31507;51.494;7.518;2022-10-15T00:04:07;13.10;99.90
45807;DHT22;31507;51.494;7.518;2022-10-15T00:06:33;13.10;99.90
45807;DHT22;31507;51.494;7.518;2022-10-15T00:08:59;13.00;99.90
45807;DHT22;31507;51.494;7.518;2022-10-15T00:11:26;13.00;99.90
45807;DHT22;31507;51.494;7.518;2022-10-15T00:13:53;12.90;99.90
45807;DHT22;31507;51.494;7.518;2022-10-15T00:16:22;12.90;99.90
45807;DHT22;31507;51.494;7.518;2022-10-15T00:18:48;12.80;99.90
45807;DHT22;31507;51.494;7.518;2022-10-15T00:21:16;12.70;99.90
45807;DHT22;31507;51.494;7.518;2022-10-15T00:23:42;12.60;99.90
45807;DHT22;31507;51.494;7.518;2022-10-15T00:26:11;12.60;99.90
45807;DHT22;31507;51.494;7.518;2022-10-15T00:28:37;12.50;99.90
45807;DHT22;31507;51.494;7.518;2022-10-15T00:31:12;12.40;99.90
45807;DHT22;31507;51.494;7.518;2022-10-15T00:33:39;12.40;99.90
45807;DHT22;31507;51.494;7.518;2022-10-15T00:36:11;12.40;99.90
45807;DHT22;31507;51.494;7.518;2022-10-15T00:38:37;12.40;99.90
45807;DHT22;31507;51.494;7.518;2022-10-15T00:41:05;12.40;99.90
45807;DHT22;31507;51.494;7.518;2022-10-15T00:43:39;12.40;99.90
45807;DHT22;31507;51.494;7.518;2022-10-15T00:46:11;12.40;99.90
45807;DHT22;31507;51.494;7.518;2022-10-15T00:48:40;12.40;99.90
45807;DHT22;31507;51.494;7.518;2022-10-15T00:51:06;12.30;99.90
45807;DHT22;31507;51.494;7.518;2022-10-15T00:53:32;12.30;99.90
45807;DHT22;31507;51.494;7.518;2022-10-15T00:55:59;12.20;99.90
45807;DHT22;31507;51.494;7.518;2022-10-15T00:58:28;12.20;99.90
45807;DHT22;31507;51.494;7.518;2022-10-15T01:00:56;12.10;99.90
45807;DHT22;31507;51.494;7.518;2022-10-15T01:03:22;12.10;99.90
45807;DHT22;31507;51.494;7.518;2022-10-15T01:05:50;12.10;99.90
45807;DHT22;31507;51.494;7.518;2022-10-15T01:08:16;12.10;99.90
45807;DHT22;31507;51.494;7.518;2022-10-15T01:16:30;12.00;99.90
45807;DHT22;31507;51.494;7.518;2022-10-15T01:22:23;12.10;99.90
45807;DHT22;31507;51.494;7.518;2022-10-15T01:27:37;12.10;99.90
45807;DHT22;31507;51.494;7.518;2022-10-15T01:35:52;12.00;99.90
45807;DHT22;31507;51.494;7.518;2022-10-15T01:41:10;12.00;99.90
45807;DHT22;31507;51.494;7.518;2022-10-15T01:44:16;12.10;99.90
45807;DHT22;31507;51.494;7.518;2022-10-15T01:46:48;12.10;99.90
45807;DHT22;31507;51.494;7.518;2022-10-15T01:49:17;12.10;99.90
45807;DHT22;31507;51.494;7.518;2022-10-15T01:51:51;12.10;99.90
45807;DHT22;31507;51.494;7.518;2022-10-15T01:54:18;12.10;99.90
45807;DHT22;31507;51.494;7.518;2022-10-15T01:56:47;12.10;99.90
45807;DHT22;31507;51.494;7.518;2022-10-15T01:59:22;12.20;99.90
45807;DHT22;31507;51.494;7.518;2022-10-15T02:01:49;12.20;99.90
45807;DHT22;31507;51.494;7.518;2022-10-15T02:04:20;12.20;99.90
45807;DHT22;31507;51.494;7.518;2022-10-15T02:06:52;12.10;99.90
45807;DHT22;31507;51.494;7.518;2022-10-15T02:09:32;12.20;99.90
45807;DHT22;31507;51.494;7.518;2022-10-15T02:12:26;12.20;99.90
45807;DHT22;31507;51.494;7.518;2022-10-15T02:15:06;12.20;99.90
45807;DHT22;31507;51.494;7.518;2022-10-15T02:17:44;12.20;99.90
45807;DHT22;31507;51.494;7.518;2022-10-15T02:20:23;12.10;99.90
45807;DHT22;31507;51.494;7.518;2022-10-15T02:23:06;12.10;99.90
45807;DHT22;31507;51.494;7.518;2022-10-15T02:25:34;12.10;99.90
45807;DHT22;31507;51.494;7.518;2022-10-15T02:28:03;12.10;99.90
45807;DHT22;31507;51.494;7.518;2022-10-15T02:30:30;12.00;99.90
45807;DHT22;31507;51.494;7.518;2022-10-15T02:32:58;12.10;99.90
45807;DHT22;31507;51.494;7.518;2022-10-15T02:35:25;12.10;99.90
45807;DHT22;31507;51.494;7.518;2022-10-15T02:37:53;12.10;99.90
45807;DHT22;31507;51.494;7.518;2022-10-15T02:40:26;12.10;99.90
45807;DHT22;31507;51.494;7.518;2022-10-15T02:42:52;12.00;99.90
45807;DHT22;31507;51.494;7.518;2022-10-15T02:45:18;12.00;99.90
45807;DHT22;31507;51.494;7.518;2022-10-15T02:47:44;12.10;99.90
45807;DHT22;31507;51.494;7.518;2022-10-15T02:50:09;12.10;99.90
45807;DHT22;31507;51.494;7.518;2022-10-15T02:52:35;12.00;99.90
45807;DHT22;31507;51.494;7.518;2022-10-15T02:55:01;12.10;99.90
45807;DHT22;31507;51.494;7.518;2022-10-15T02:57:26;12.00;99.90
45807;DHT22;31507;51.494;7.518;2022-10-15T02:59:52;12.10;99.90
45807;DHT22;31507;51.494;7.518;2022-10-15T03:02:18;12.10;99.90
45807;DHT22;31507;51.494;7.518;2022-10-15T03:04:43;12.10;99.90
45807;DHT22;31507;51.494;7.518;2022-10-15T03:07:09;12.10;99.90
45807;DHT22;31507;51.494;7.518;2022-10-15T03:09:34;12.10;99.90
45807;DHT22;31507;51.494;7.518;2022-10-15T03:12:00;12.10;99.90
45807;DHT22;31507;51.494;7.518;2022-10-15T03:14:26;12.10;99.90
45807;DHT22;31507;51.494;7.518;2022-10-15T03:16:52;12.10;99.90
45807;DHT22;31507;51.494;7.518;2022-10-15T03:19:17;12.10;99.90
45807;DHT22;31507;51.494;7.518;2022-10-15T03:21:43;12.20;99.90
45807;DHT22;31507;51.494;7.518;2022-10-15T03:24:09;12.20;99.90
45807;DHT22;31507;51.494;7.518;2022-10-15T03:26:34;12.20;99.90
45807;DHT22;31507;51.494;7.518;2022-10-15T03:29:00;12.10;99.90
45807;DHT22;31507;51.494;7.518;2022-10-15T03:31:25;12.10;99.90
45807;DHT22;31507;51.494;7.518;2022-10-15T03:33:51;12.10;99.90
45807;DHT22;31507;51.494;7.518;2022-10-15T03:36:16;12.10;99.90
45807;DHT22;31507;51.494;7.518;2022-10-15T03:38:42;12.00;99.90
45807;DHT22;31507;51.494;7.518;2022-10-15T03:41:08;12.00;99.90
45807;DHT22;31507;51.494;7.518;2022-10-15T03:43:33;12.00;99.90
45807;DHT22;31507;51.494;7.518;2022-10-15T03:46:03;12.00;99.90
45807;DHT22;31507;51.494;7.518;2022-10-15T03:48:29;12.00;99.90
45807;DHT22;31507;51.494;7.518;2022-10-15T03:50:56;12.00;99.90
45807;DHT22;31507;51.494;7.518;2022-10-15T03:53:22;12.00;99.90
45807;DHT22;31507;51.494;7.518;2022-10-15T03:55:48;12.00;99.90
45807;DHT22;31507;51.494;7.518;2022-10-15T03:58:14;12.00;99.90
45807;DHT22;31507;51.494;7.518;2022-10-15T04:00:41;12.00;99.90
45807;DHT22;31507;51.494;7.518;2022-10-15T04:03:07;12.00;99.90
45807;DHT22;31507;51.494;7.518;2022-10-15T04:05:32;11.90;99.90
45807;DHT22;31507;51.494;7.518;2022-10-15T04:07:58;11.90;99.90
45807;DHT22;31507;51.494;7.518;2022-10-15T04:10:24;11.80;99.90
45807;DHT22;31507;51.494;7.518;2022-10-15T04:12:50;11.80;99.90
45807;DHT22;31507;51.494;7.518;2022-10-15T04:15:15;11.70;99.90
45807;DHT22;31507;51.494;7.518;2022-10-15T04:17:41;11.60;99.90
45807;DHT22;31507;51.494;7.518;2022-10-15T04:20:07;11.60;99.90
45807;DHT22;31507;51.494;7.518;2022-10-15T04:22:33;11.50;99.90
45807;DHT22;31507;51.494;7.518;2022-10-15T04:24:58;11.50;99.90
45807;DHT22;31507;51.494;7.518;2022-10-15T04:27:24;11.50;99.90
45807;DHT22;31507;51.494;7.518;2022-10-15T04:29:50;11.40;99.90
45807;DHT22;31507;51.494;7.518;2022-10-15T04:32:15;11.40;99.90
45807;DHT22;31507;51.494;7.518;2022-10-15T04:34:41;11.30;99.90
45807;DHT22;31507;51.494;7.518;2022-10-15T04:37:07;11.30;99.90
45807;DHT22;31507;51.494;7.518;2022-10-15T04:39:32;11.30;99.90
45807;DHT22;31507;51.494;7.518;2022-10-15T04:41:58;11.30;99.90
45807;DHT22;31507;51.494;7.518;2022-10-15T04:44:23;11.20;99.90
45807;DHT22;31507;51.494;7.518;2022-10-15T04:46:49;11.30;99.90
45807;DHT22;31507;51.494;7.518;2022-10-15T04:49:14;11.20;99.90
45807;DHT22;31507;51.494;7.518;2022-10-15T04:51:40;11.20;99.90
45807;DHT22;31507;51.494;7.518;2022-10-15T04:54:06;11.10;99.90
45807;DHT22;31507;51.494;7.518;2022-10-15T04:56:31;11.10;99.90
45807;DHT22;31507;51.494;7.518;2022-10-15T04:58:57;11.10;99.90
45807;DHT22;31507;51.494;7.518;2022-10-15T05:01:23;11.20;99.90
45807;DHT22;31507;51.494;7.518;2022-10-15T05:03:48;11.20;99.90
45807;DHT22;31507;51.494;7.518;2022-10-15T05:08:41;11.20;99.90
45807;DHT22;31507;51.494;7.518;2022-10-15T05:11:10;11.20;99.90
45807;DHT22;31507;51.494;7.518;2022-10-15T05:13:37;11.20;99.90
45807;DHT22;31507;51.494;7.518;2022-10-15T05:18:39;11.20;99.90
45807;DHT22;31507;51.494;7.518;2022-10-15T05:21:05;11.30;99.90
45807;DHT22;31507;51.494;7.518;2022-10-15T05:23:31;11.30;99.90
45807;DHT22;31507;51.494;7.518;2022-10-15T05:26:01;11.30;99.90
45807;DHT22;31507;51.494;7.518;2022-10-15T05:28:28;11.30;99.90
45807;DHT22;31507;51.494;7.518;2022-10-15T05:30:54;11.30;99.90
45807;DHT22;31507;51.494;7.518;2022-10-15T05:33:20;11.30;99.90
45807;DHT22;31507;51.494;7.518;2022-10-15T05:35:47;11.30;99.90
45807;DHT22;31507;51.494;7.518;2022-10-15T05:38:12;11.30;99.90
45807;DHT22;31507;51.494;7.518;2022-10-15T05:40:38;11.30;99.90
45807;DHT22;31507;51.494;7.518;2022-10-15T05:43:04;11.30;99.90
45807;DHT22;31507;51.494;7.518;2022-10-15T05:45:29;11.30;99.90
45807;DHT22;31507;51.494;7.518;2022-10-15T05:47:55;11.30;99.90
45807;DHT22;31507;51.494;7.518;2022-10-15T05:50:22;11.30;99.90
45807;DHT22;31507;51.494;7.518;2022-10-15T05:52:47;11.20;99.90
45807;DHT22;31507;51.494;7.518;2022-10-15T05:55:13;11.20;99.90
45807;DHT22;31507;51.494;7.518;2022-10-15T05:57:39;11.20;99.90
45807;DHT22;31507;51.494;7.518;2022-10-15T06:00:05;11.20;99.90
45807;DHT22;31507;51.494;7.518;2022-10-15T06:02:31;11.10;99.90
45807;DHT22;31507;51.494;7.518;2022-10-15T06:04:57;11.00;99.90
45807;DHT22;31507;51.494;7.518;2022-10-15T06:07:23;11.00;99.90
45807;DHT22;31507;51.494;7.518;2022-10-15T06:09:48;11.00;99.90
45807;DHT22;31507;51.494;7.518;2022-10-15T06:12:14;11.00;99.90
45807;DHT22;31507;51.494;7.518;2022-10-15T06:14:39;11.10;99.90
45807;DHT22;31507;51.494;7.518;2022-10-15T06:17:05;11.20;99.90
45807;DHT22;31507;51.494;7.518;2022-10-15T06:19:31;11.30;99.90
45807;DHT22;31507;51.494;7.518;2022-10-15T06:21:56;11.40;99.90
45807;DHT22;31507;51.494;7.518;2022-10-15T06:24:22;11.60;99.90
45807;DHT22;31507;51.494;7.518;2022-10-15T06:26:48;11.70;99.90
45807;DHT22;31507;51.494;7.518;2022-10-15T06:29:13;11.80;99.90
45807;DHT22;31507;51.494;7.518;2022-10-15T06:31:39;11.90;99.90
45807;DHT22;31507;51.494;7.518;2022-10-15T06:34:04;12.00;99.90
45807;DHT22;31507;51.494;7.518;2022-10-15T06:36:30;12.10;99.90
45807;DHT22;31507;51.494;7.518;2022-10-15T06:38:56;12.20;99.90
45807;DHT22;31507;51.494;7.518;2022-10-15T06:41:21;12.20;99.90
45807;DHT22;31507;51.494;7.518;2022-10-15T06:43:50;12.20;99.90
45807;DHT22;31507;51.494;7.518;2022-10-15T06:46:15;12.30;99.90
45807;DHT22;31507;51.494;7.518;2022-10-15T06:48:41;12.30;99.90
45807;DHT22;31507;51.494;7.518;2022-10-15T06:51:06;12.40;99.90
45807;DHT22;31507;51.494;7.518;2022-10-15T06:53:32;12.40;99.90
45807;DHT22;31507;51.494;7.518;2022-10-15T06:56:00;12.40;99.90
45807;DHT22;31507;51.494;7.518;2022-10-15T06:58:26;12.40;99.90
45807;DHT22;31507;51.494;7.518;2022-10-15T07:00:52;12.50;99.90
45807;DHT22;31507;51.494;7.518;2022-10-15T07:03:18;12.50;99.90
45807;DHT22;31507;51.494;7.518;2022-10-15T07:05:43;12.60;99.90
45807;DHT22;31507;51.494;7.518;2022-10-15T07:08:09;12.60;99.90
45807;DHT22;31507;51.494;7.518;2022-10-15T07:10:35;12.70;99.90
45807;DHT22;31507;51.494;7.518;2022-10-15T07:13:00;12.80;99.90
45807;DHT22;31507;51.494;7.518;2022-10-15T07:15:27;12.90;99.90
45807;DHT22;31507;51.494;7.518;2022-10-15T07:17:54;12.90;99.90
45807;DHT22;31507;51.494;7.518;2022-10-15T07:20:27;12.90;99.90
45807;DHT22;31507;51.494;7.518;2022-10-15T07:22:57;13.10;99.90
45807;DHT22;31507;51.494;7.518;2022-10-15T07:25:24;13.10;99.90
45807;DHT22;31507;51.494;7.518;2022-10-15T07:27:49;13.20;99.90
45807;DHT22;31507;51.494;7.518;2022-10-15T07:30:15;13.30;99.90
45807;DHT22;31507;51.494;7.518;2022-10-15T07:32:41;13.30;99.90
45807;DHT22;31507;51.494;7.518;2022-10-15T07:35:07;13.50;99.90
45807;DHT22;31507;51.494;7.518;2022-10-15T07:37:33;13.60;99.90
45807;DHT22;31507;51.494;7.518;2022-10-15T07:39:59;13.70;99.90
45807;DHT22;31507;51.494;7.518;2022-10-15T07:42:25;13.70;99.90
45807;DHT22;31507;51.494;7.518;2022-10-15T07:44:50;13.70;99.90
45807;DHT22;31507;51.494;7.518;2022-10-15T07:47:16;13.80;99.90
45807;DHT22;31507;51.494;7.518;2022-10-15T07:49:42;13.90;99.90
45807;DHT22;31507;51.494;7.518;2022-10-15T07:52:08;14.00;99.90
45807;DHT22;31507;51.494;7.518;2022-10-15T07:54:34;14.10;99.90
45807;DHT22;31507;51.494;7.518;2022-10-15T07:56:59;14.50;99.90
45807;DHT22;31507;51.494;7.518;2022-10-15T07:59:25;14.80;99.90
45807;DHT22;31507;51.494;7.518;2022-10-15T08:01:51;14.90;99.90
45807;DHT22;31507;51.494;7.518;2022-10-15T08:04:17;15.00;99.90
45807;DHT22;31507;51.494;7.518;2022-10-15T08:06:45;15.20;99.90
45807;DHT22;31507;51.494;7.518;2022-10-15T08:09:10;15.30;99.90
45807;DHT22;31507;51.494;7.518;2022-10-15T08:11:36;15.50;99.90
45807;DHT22;31507;51.494;7.518;2022-10-15T08:14:02;15.50;99.90
45807;DHT22;31507;51.494;7.518;2022-10-15T08:16:28;15.50;99.90
45807;DHT22;31507;51.494;7.518;2022-10-15T08:18:54;15.30;99.90
45807;DHT22;31507;51.494;7.518;2022-10-15T08:21:19;15.10;99.90
45807;DHT22;31507;51.494;7.518;2022-10-15T08:23:45;14.90;99.90
45807;DHT22;31507;51.494;7.518;2022-10-15T08:26:11;14.80;99.90
45807;DHT22;31507;51.494;7.518;2022-10-15T08:28:37;14.80;99.90
45807;DHT22;31507;51.494;7.518;2022-10-15T08:31:04;14.90;99.90
45807;DHT22;31507;51.494;7.518;2022-10-15T08:33:30;15.20;99.90
45807;DHT22;31507;51.494;7.518;2022-10-15T08:35:56;15.50;99.90
45807;DHT22;31507;51.494;7.518;2022-10-15T08:38:22;15.80;99.90
45807;DHT22;31507;51.494;7.518;2022-10-15T08:40:58;16.30;99.90
45807;DHT22;31507;51.494;7.518;2022-10-15T08:43:35;16.70;99.90
45807;DHT22;31507;51.494;7.518;2022-10-15T08:46:05;16.90;99.90
45807;DHT22;31507;51.494;7.518;2022-10-15T08:48:38;17.30;99.90
45807;DHT22;31507;51.494;7.518;2022-10-15T08:51:09;17.90;99.90
45807;DHT22;31507;51.494;7.518;2022-10-15T08:53:42;18.30;99.90
45807;DHT22;31507;51.494;7.518;2022-10-15T08:56:20;18.20;99.90
45807;DHT22;31507;51.494;7.518;2022-10-15T09:01:23;17.90;99.90
45807;DHT22;31507;51.494;7.518;2022-10-15T09:04:20;17.60;99.90
45807;DHT22;31507;51.494;7.518;2022-10-15T09:06:50;17.10;99.90
45807;DHT22;31507;51.494;7.518;2022-10-15T09:09:41;16.80;99.90
45807;DHT22;31507;51.494;7.518;2022-10-15T09:12:17;16.60;99.90
45807;DHT22;31507;51.494;7.518;2022-10-15T09:14:47;16.50;99.90
45807;DHT22;31507;51.494;7.518;2022-10-15T09:17:24;16.50;99.90
45807;DHT22;31507;51.494;7.518;2022-10-15T09:19:54;16.70;99.90
45807;DHT22;31507;51.494;7.518;2022-10-15T09:22:29;17.60;99.90
45807;DHT22;31507;51.494;7.518;2022-10-15T09:24:56;18.10;99.90
45807;DHT22;31507;51.494;7.518;2022-10-15T09:27:32;19.00;99.90
45807;DHT22;31507;51.494;7.518;2022-10-15T09:30:17;19.60;99.90
45807;DHT22;31507;51.494;7.518;2022-10-15T09:32:44;20.20;99.90
45807;DHT22;31507;51.494;7.518;2022-10-15T09:35:37;20.40;99.90
45807;DHT22;31507;51.494;7.518;2022-10-15T09:41:03;20.80;99.90
45807;DHT22;31507;51.494;7.518;2022-10-15T09:43:41;21.20;99.90
45807;DHT22;31507;51.494;7.518;2022-10-15T09:46:08;21.00;99.90
45807;DHT22;31507;51.494;7.518;2022-10-15T09:48:40;20.40;99.90
45807;DHT22;31507;51.494;7.518;2022-10-15T09:53:47;18.40;99.90
45807;DHT22;31507;51.494;7.518;2022-10-15T09:56:18;17.90;99.90
45807;DHT22;31507;51.494;7.518;2022-10-15T09:58:57;17.90;99.90
45807;DHT22;31507;51.494;7.518;2022-10-15T10:01:27;18.80;99.90
45807;DHT22;31507;51.494;7.518;2022-10-15T10:04:16;19.50;99.90
45807;DHT22;31507;51.494;7.518;2022-10-15T10:07:04;20.00;99.90
45807;DHT22;31507;51.494;7.518;2022-10-15T10:09:35;20.10;99.90
45807;DHT22;31507;51.494;7.518;2022-10-15T10:12:04;19.60;99.90
45807;DHT22;31507;51.494;7.518;2022-10-15T10:14:51;19.10;99.90
45807;DHT22;31507;51.494;7.518;2022-10-15T10:17:20;18.80;99.90
45807;DHT22;31507;51.494;7.518;2022-10-15T10:20:13;18.60;99.90
45807;DHT22;31507;51.494;7.518;2022-10-15T10:27:51;18.30;99.90
45807;DHT22;31507;51.494;7.518;2022-10-15T10:30:17;18.10;99.90
45807;DHT22;31507;51.494;7.518;2022-10-15T10:32:43;18.00;99.90
45807;DHT22;31507;51.494;7.518;2022-10-15T10:35:23;17.90;99.90
45807;DHT22;31507;51.494;7.518;2022-10-15T10:37:50;17.60;99.90
45807;DHT22;31507;51.494;7.518;2022-10-15T10:40:33;17.50;99.90
45807;DHT22;31507;51.494;7.518;2022-10-15T10:45:56;17.30;99.90
45807;DHT22;31507;51.494;7.518;2022-10-15T10:48:52;17.20;99.90
45807;DHT22;31507;51.494;7.518;2022-10-15T10:51:23;17.20;99.90
45807;DHT22;31507;51.494;7.518;2022-10-15T10:53:56;17.30;99.90
45807;DHT22;31507;51.494;7.518;2022-10-15T10:58:58;17.60;99.90
45807;DHT22;31507;51.494;7.518;2022-10-15T11:01:25;17.60;99.90
45807;DHT22;31507;51.494;7.518;2022-10-15T11:03:51;17.50;99.90
45807;DHT22;31507;51.494;7.518;2022-10-15T11:25:07;17.50;99.90
45807;DHT22;31507;51.494;7.518;2022-10-15T11:57:30;19.30;99.90
45807;DHT22;31507;51.494;7.518;2022-10-15T12:04:57;19.70;99.90
45807;DHT22;31507;51.494;7.518;2022-10-15T12:07:31;19.80;99.90
45807;DHT22;31507;51.494;7.518;2022-10-15T12:12:52;19.40;99.90
45807;DHT22;31507;51.494;7.518;2022-10-15T12:15:34;19.30;99.90
45807;DHT22;31507;51.494;7.518;2022-10-15T12:18:37;19.50;99.90
45807;DHT22;31507;51.494;7.518;2022-10-15T12:21:34;19.70;99.90
45807;DHT22;31507;51.494;7.518;2022-10-15T12:24:01;20.20;99.90
45807;DHT22;31507;51.494;7.518;2022-10-15T12:26:32;20.20;99.90
45807;DHT22;31507;51.494;7.518;2022-10-15T12:29:01;20.10;99.90
45807;DHT22;31507;51.494;7.518;2022-10-15T12:31:48;19.60;99.90
45807;DHT22;31507;51.494;7.518;2022-10-15T12:34:40;19.40;99.90
45807;DHT22;31507;51.494;7.518;2022-10-15T12:37:27;19.20;99.90
45807;DHT22;31507;51.494;7.518;2022-10-15T12:39:59;19.10;99.90
45807;DHT22;31507;51.494;7.518;2022-10-15T12:42:37;19.00;99.90
45807;DHT22;31507;51.494;7.518;2022-10-15T12:45:27;18.90;99.90
45807;DHT22;31507;51.494;7.518;2022-10-15T12:50:40;18.70;99.90
45807;DHT22;31507;51.494;7.518;2022-10-15T12:58:44;18.40;99.90
45807;DHT22;31507;51.494;7.518;2022-10-15T13:11:49;18.70;99.90
45807;DHT22;31507;51.494;7.518;2022-10-15T13:14:41;18.70;99.90
45807;DHT22;31507;51.494;7.518;2022-10-15T13:17:17;18.80;99.90
45807;DHT22;31507;51.494;7.518;2022-10-15T13:20:04;18.80;99.90
45807;DHT22;31507;51.494;7.518;2022-10-15T13:22:34;18.80;99.90
45807;DHT22;31507;51.494;7.518;2022-10-15T13:25:01;18.80;99.90
45807;DHT22;31507;51.494;7.518;2022-10-15T13:27:32;18.80;99.90
45807;DHT22;31507;51.494;7.518;2022-10-15T13:30:09;18.80;99.90
45807;DHT22;31507;51.494;7.518;2022-10-15T13:32:45;18.80;99.90
45807;DHT22;31507;51.494;7.518;2022-10-15T13:35:17;18.90;99.90
45807;DHT22;31507;51.494;7.518;2022-10-15T13:37:43;18.90;99.90
45807;DHT22;31507;51.494;7.518;2022-10-15T13:43:23;18.90;99.90
45807;DHT22;31507;51.494;7.518;2022-10-15T13:45:54;18.90;99.90
45807;DHT22;31507;51.494;7.518;2022-10-15T13:48:23;18.90;99.90
45807;DHT22;31507;51.494;7.518;2022-10-15T13:51:01;18.80;99.90
45807;DHT22;31507;51.494;7.518;2022-10-15T13:53:36;18.80;99.90
45807;DHT22;31507;51.494;7.518;2022-10-15T13:56:24;18.80;99.90
45807;DHT22;31507;51.494;7.518;2022-10-15T13:58:50;18.80;99.90
45807;DHT22;31507;51.494;7.518;2022-10-15T14:01:18;18.80;99.90
45807;DHT22;31507;51.494;7.518;2022-10-15T14:06:19;18.80;99.90
45807;DHT22;31507;51.494;7.518;2022-10-15T14:08:46;18.80;99.90
45807;DHT22;31507;51.494;7.518;2022-10-15T14:11:12;18.70;99.90
45807;DHT22;31507;51.494;7.518;2022-10-15T14:13:47;18.50;99.90
45807;DHT22;31507;51.494;7.518;2022-10-15T14:19:07;18.50;99.90
45807;DHT22;31507;51.494;7.518;2022-10-15T14:21:34;18.50;99.90
45807;DHT22;31507;51.494;7.518;2022-10-15T14:24:14;18.60;99.90
45807;DHT22;31507;51.494;7.518;2022-10-15T14:26:41;18.60;99.90
45807;DHT22;31507;51.494;7.518;2022-10-15T14:29:43;18.60;99.90
45807;DHT22;31507;51.494;7.518;2022-10-15T14:32:27;18.50;99.90
45807;DHT22;31507;51.494;7.518;2022-10-15T14:34:55;18.40;99.90
45807;DHT22;31507;51.494;7.518;2022-10-15T14:37:37;18.30;99.90
45807;DHT22;31507;51.494;7.518;2022-10-15T14:42:36;18.20;99.90
45807;DHT22;31507;51.494;7.518;2022-10-15T14:47:38;18.10;99.90
45807;DHT22;31507;51.494;7.518;2022-10-15T14:50:05;18.10;99.90
45807;DHT22;31507;51.494;7.518;2022-10-15T14:52:35;18.10;99.90
45807;DHT22;31507;51.494;7.518;2022-10-15T14:57:37;18.20;99.90
45807;DHT22;31507;51.494;7.518;2022-10-15T15:02:39;18.30;99.90
45807;DHT22;31507;51.494;7.518;2022-10-15T15:07:37;18.30;99.90
45807;DHT22;31507;51.494;7.518;2022-10-15T15:10:05;18.20;99.90
45807;DHT22;31507;51.494;7.518;2022-10-15T15:12:31;18.10;99.90
45807;DHT22;31507;51.494;7.518;2022-10-15T15:14:58;18.10;99.90
45807;DHT22;31507;51.494;7.518;2022-10-15T15:17:26;18.00;99.90
45807;DHT22;31507;51.494;7.518;2022-10-15T15:19:53;18.00;99.90
45807;DHT22;31507;51.494;7.518;2022-10-15T15:22:27;18.00;99.90
45807;DHT22;31507;51.494;7.518;2022-10-15T15:24:53;18.00;99.90
45807;DHT22;31507;51.494;7.518;2022-10-15T15:27:28;17.90;99.90
45807;DHT22;31507;51.494;7.518;2022-10-15T15:29:54;17.90;99.90
45807;DHT22;31507;51.494;7.518;2022-10-15T15:32:21;17.80;99.90
45807;DHT22;31507;51.494;7.518;2022-10-15T15:34:48;17.80;99.90
45807;DHT22;31507;51.494;7.518;2022-10-15T15:37:19;17.80;99.90
45807;DHT22;31507;51.494;7.518;2022-10-15T15:39:45;17.80;99.90
45807;DHT22;31507;51.494;7.518;2022-10-15T15:42:19;17.80;99.90
45807;DHT22;31507;51.494;7.518;2022-10-15T15:44:46;17.80;99.90
45807;DHT22;31507;51.494;7.518;2022-10-15T15:47:12;17.80;99.90
45807;DHT22;31507;51.494;7.518;2022-10-15T15:49:39;17.80;99.90
45807;DHT22;31507;51.494;7.518;2022-10-15T15:52:11;17.80;99.90
45807;DHT22;31507;51.494;7.518;2022-10-15T15:54:39;17.70;99.90
45807;DHT22;31507;51.494;7.518;2022-10-15T15:57:05;17.70;99.90
45807;DHT22;31507;51.494;7.518;2022-10-15T15:59:31;17.60;99.90
45807;DHT22;31507;51.494;7.518;2022-10-15T16:01:56;17.40;99.90
45807;DHT22;31507;51.494;7.518;2022-10-15T16:04:22;16.90;99.90
45807;DHT22;31507;51.494;7.518;2022-10-15T16:06:48;16.60;99.90
45807;DHT22;31507;51.494;7.518;2022-10-15T16:09:20;16.50;99.90
45807;DHT22;31507;51.494;7.518;2022-10-15T16:11:47;16.30;99.90
45807;DHT22;31507;51.494;7.518;2022-10-15T16:14:13;16.30;99.90
45807;DHT22;31507;51.494;7.518;2022-10-15T16:16:39;16.20;99.90
45807;DHT22;31507;51.494;7.518;2022-10-15T16:19:05;16.20;99.90
45807;DHT22;31507;51.494;7.518;2022-10-15T16:21:31;16.20;99.90
45807;DHT22;31507;51.494;7.518;2022-10-15T16:23:57;16.20;99.90
45807;DHT22;31507;51.494;7.518;2022-10-15T16:26:22;16.20;99.90
45807;DHT22;31507;51.494;7.518;2022-10-15T16:28:48;16.20;99.90
45807;DHT22;31507;51.494;7.518;2022-10-15T16:31:25;16.20;99.90
45807;DHT22;31507;51.494;7.518;2022-10-15T16:33:53;16.20;99.90
45807;DHT22;31507;51.494;7.518;2022-10-15T16:36:19;16.20;99.90
45807;DHT22;31507;51.494;7.518;2022-10-15T16:38:45;16.20;99.90
45807;DHT22;31507;51.494;7.518;2022-10-15T16:41:13;16.20;99.90
45807;DHT22;31507;51.494;7.518;2022-10-15T16:43:39;16.20;99.90
45807;DHT22;31507;51.494;7.518;2022-10-15T16:46:05;16.20;99.90
45807;DHT22;31507;51.494;7.518;2022-10-15T16:48:32;16.10;99.90
45807;DHT22;31507;51.494;7.518;2022-10-15T16:51:06;16.10;99.90
45807;DHT22;31507;51.494;7.518;2022-10-15T16:53:34;16.10;99.90
45807;DHT22;31507;51.494;7.518;2022-10-15T16:56:15;16.00;99.90
45807;DHT22;31507;51.494;7.518;2022-10-15T16:58:41;16.00;99.90
45807;DHT22;31507;51.494;7.518;2022-10-15T17:01:11;15.90;99.90
45807;DHT22;31507;51.494;7.518;2022-10-15T17:03:38;15.90;99.90
45807;DHT22;31507;51.494;7.518;2022-10-15T17:06:08;15.90;99.90
45807;DHT22;31507;51.494;7.518;2022-10-15T17:08:41;15.90;99.90
45807;DHT22;31507;51.494;7.518;2022-10-15T17:11:10;15.90;99.90
45807;DHT22;31507;51.494;7.518;2022-10-15T17:13:36;15.90;99.90
45807;DHT22;31507;51.494;7.518;2022-10-15T17:16:13;15.90;99.90
45807;DHT22;31507;51.494;7.518;2022-10-15T17:18:40;15.90;99.90
45807;DHT22;31507;51.494;7.518;2022-10-15T17:21:08;15.90;99.90
45807;DHT22;31507;51.494;7.518;2022-10-15T17:23:34;15.90;99.90
45807;DHT22;31507;51.494;7.518;2022-10-15T17:26:09;15.80;99.90
45807;DHT22;31507;51.494;7.518;2022-10-15T17:28:35;15.60;99.90
45807;DHT22;31507;51.494;7.518;2022-10-15T17:31:06;15.40;99.90
45807;DHT22;31507;51.494;7.518;2022-10-15T17:33:34;15.20;99.90
45807;DHT22;31507;51.494;7.518;2022-10-15T17:36:04;15.00;99.90
45807;DHT22;31507;51.494;7.518;2022-10-15T17:38:30;14.80;99.90
45807;DHT22;31507;51.494;7.518;2022-10-15T17:40:55;14.80;99.90
45807;DHT22;31507;51.494;7.518;2022-10-15T17:43:21;14.70;99.90
45807;DHT22;31507;51.494;7.518;2022-10-15T17:45:47;14.70;99.90
45807;DHT22;31507;51.494;7.518;2022-10-15T17:48:12;14.70;99.90
45807;DHT22;31507;51.494;7.518;2022-10-15T17:50:38;14.60;99.90
45807;DHT22;31507;51.494;7.518;2022-10-15T17:53:04;14.60;99.90
45807;DHT22;31507;51.494;7.518;2022-10-15T17:55:30;14.60;99.90
45807;DHT22;31507;51.494;7.518;2022-10-15T17:57:56;14.60;99.90
45807;DHT22;31507;51.494;7.518;2022-10-15T18:00:22;14.60;99.90
45807;DHT22;31507;51.494;7.518;2022-10-15T18:02:48;14.60;99.90
45807;DHT22;31507;51.494;7.518;2022-10-15T18:05:15;14.60;99.90